Airfield :
LOGIN :

Register | Disclaimer

   EN    FR    IT 

 










Legend :    VFR   Marginal VFR   IFR   Intensive IFR   Very Intensive IFR
Visi :
Ceiling :
>= 8 km
>= 3000ft
5 to 8 km
1000 to 3000 ft
1500m to 5 km
500 to 1000 ft
800 to 1500m
200 to 500 ft
< 800m
< 200 ft
Symbols :   Thunderstorms  Fog  Heavy snow  Heavy precipitations  Wind > 20 kt
SIGMETs :     Misc.  Thunderstorms  Icing  Turbulence  Mountain Waves  Volcanic Ashes







- Airport Elevation : 49 ft
- IATA code : AOI


LIPY - Ancona Falconara

CURRENT METAR :
  • 180650Z 19004KT 9999 3000SE BCFG NSC 11/10 Q1020

EXPIRED METARs :
  • 180558Z 17003KT 9999 0800NE R22/0250 PRFG NSC 09/09 Q1020
  • 180512Z 17003KT 2500 1000NE R22/0275 BCFG NSC 09/09 Q1020
  • 180450Z VRB02KT 0500 R22/0400 FG NSC 09/09 Q1020

TAF TAF LIPY
Valid from the 18 at 06:00 until the 19 at 06:00 UTC


180500Z 1806/1906 VRB05KT 1500 BR SCT018
BECMG 1808/1811 7000
BECMG 1818/1820 1500 BR
No reported NOTAMs for that airfield.



MET'MAP, your aeronautical weather chart ! - Copyright ORBIFLY December 2007 - Disclaimer

ORBIFLY MET'MAP TEAM :

Programming & Development : Alexandra Zaïnal
Concept & Development : Baudouin d'Aumeries
Co-Development & Prog : Marc-Olivier Méhu
Technical & hardware support : Manuel Goepfert

Contact : metmap@orbifly.com




SOURCES & CREDITS :

   NOAA